Airport View

Enter AWOS ICAO identifier for current METAR.

ex. KFNL

KEDU 212355Z AUTO 33007KT 10SM CLR 30/04 A2987 RMK AO1

22 Sep 2019 00:16

Frequency: 119.025

Phone: 530-754-6839

Other Area AWOS: KVCB - KSMF - KSAC - KSUU

TAF KSMF 212335Z 2200/2224 02006KT P6SM SKC FM220300 17006KT P6SM SKC